Saint Louis, Missouri
Current Conditions -  °F | °C
As of 7:53 PM on Sunday 25 Jan 2015 (Local Time) from KCPS Reporting Station
Overcast Overcast  
Wind Chill: -4°   Ceiling: 1000
Heat Index:   Visibility: 10mi
Dew Point:   Wind: 15mph
Humidity: 89%   Direction: 340°NNW
Pressure: 29.93"   Gusts: 26mph
Location:  38.63°N, 90.24°W
Report Text: KCPS 260153Z 34013G23KT 10SM OVC010 02/00 A2993 RMK AO2 PK WND 36026/0122 RAB0054E52 CIG 008V013 SLP137 P0000 T00170000
Loading
Personal Weather Stations






























Interactive Weather Map New forecast layout! Learn more

10-Day Weather Forecast

Advertisements
Track Severe Weather on mobile